Time;durP1;ratioP1;P1;durP2;ratioP2;P2;SDS_P1;SDS_P2;PMS_P1;PMS_P2;Temp;Humidity;BMP_temperature;BMP_pressure;BME280_temperature;BME280_humidity;BME280_pressure;Samples;Min_cycle;Max_cycle;Signal;HPM_P1;HPM_P2
2022/12/03 00:00:19;;;;;;;15.23;5.88;;;5.50;99.90;;;;;;5048063;28;20021;-41
2022/12/03 00:02:45;;;;;;;13.43;6.30;;;5.60;99.90;;;;;;5038330;28;20160;-40
2022/12/03 00:05:11;;;;;;;11.48;5.75;;;5.50;99.90;;;;;;5048401;28;20068;-40
2022/12/03 00:07:36;;;;;;;11.48;5.40;;;6.30;99.90;;;;;;5047558;28;20033;-42
2022/12/03 00:10:04;;;;;;;15.32;6.63;;;4.10;99.90;;;;;;5049108;28;20611;-40
2022/12/03 00:12:29;;;;;;;12.00;5.85;;;5.70;99.90;;;;;;5048821;28;20055;-40
2022/12/03 00:14:55;;;;;;;13.57;6.57;;;5.80;99.90;;;;;;5050149;28;20021;-41
2022/12/03 00:17:20;;;;;;;10.88;5.80;;;5.80;99.90;;;;;;5050106;28;20116;-42
2022/12/03 00:19:46;;;;;;;12.95;5.65;;;5.80;99.90;;;;;;5045822;28;20244;-44
2022/12/03 00:22:12;;;;;;;12.00;6.38;;;5.90;99.90;;;;;;5048759;28;20093;-40
2022/12/03 00:24:37;;;;;;;12.85;6.32;;;5.90;99.90;;;;;;5033525;28;20028;-47
2022/12/03 00:27:03;;;;;;;14.80;6.20;;;5.90;99.90;;;;;;5031325;28;20116;-40
2022/12/03 00:29:28;;;;;;;17.55;6.22;;;4.00;99.90;;;;;;5031295;28;20057;-45
2022/12/03 00:31:54;;;;;;;13.63;5.50;;;5.90;99.90;;;;;;5031462;28;20687;-45
2022/12/03 00:34:21;;;;;;;14.35;5.75;;;5.90;99.90;;;;;;5031137;28;20025;-43
2022/12/03 00:36:47;;;;;;;16.60;6.40;;;5.90;99.90;;;;;;5031602;28;20042;-49
2022/12/03 00:39:13;;;;;;;17.27;6.70;;;6.70;99.90;;;;;;5031604;28;20068;-42
2022/12/03 00:41:38;;;;;;;16.48;6.85;;;7.50;99.90;;;;;;5031349;28;20034;-50
2022/12/03 00:44:04;;;;;;;12.68;5.80;;;;;;;;;;5031189;28;20365;-41
2022/12/03 00:46:30;;;;;;;16.23;7.57;;;3.50;99.90;;;;;;5031079;28;20552;-48
2022/12/03 00:48:56;;;;;;;19.70;7.15;;;;;;;;;;5030454;28;20045;-44
2022/12/03 00:51:22;;;;;;;14.52;7.28;;;7.30;99.90;;;;;;5025276;28;20181;-39
2022/12/03 00:53:48;;;;;;;14.93;6.75;;;;;;;;;;5031144;28;20092;-40
2022/12/03 00:56:13;;;;;;;18.17;7.82;;;3.70;99.90;;;;;;5030556;28;20484;-39
2022/12/03 00:58:39;;;;;;;15.02;7.25;;;;;;;;;;5030785;28;20048;-41
2022/12/03 01:01:05;;;;;;;20.05;8.20;;;;;;;;;;5031029;28;20029;-39
2022/12/03 01:03:31;;;;;;;17.85;7.97;;;;;;;;;;5030967;28;20040;-40
2022/12/03 01:05:57;;;;;;;18.73;9.10;;;6.80;99.90;;;;;;5030794;28;20101;-40
2022/12/03 01:08:23;;;;;;;16.13;7.85;;;;;;;;;;5031001;28;20136;-40
2022/12/03 01:10:49;;;;;;;20.65;9.23;;;6.20;99.90;;;;;;5029839;28;20021;-44
2022/12/03 01:13:15;;;;;;;21.38;9.70;;;;;;;;;;5029771;28;20033;-40
2022/12/03 01:15:41;;;;;;;20.67;9.35;;;;;;;;;;5030738;28;20034;-40
2022/12/03 01:18:07;;;;;;;21.27;9.18;;;;;;;;;;5030759;28;20029;-41
2022/12/03 01:20:35;;;;;;;19.58;8.95;;;7.90;99.90;;;;;;5031047;28;20029;-48
2022/12/03 01:23:00;;;;;;;25.23;9.73;;;4.00;99.90;;;;;;5030810;28;20108;-46
2022/12/03 01:25:26;;;;;;;21.48;9.05;;;6.80;99.90;;;;;;5030824;28;20148;-41
2022/12/03 01:27:52;;;;;;;19.65;9.98;;;5.00;99.90;;;;;;5030142;28;20042;-43
2022/12/03 01:30:18;;;;;;;21.73;9.80;;;6.60;99.90;;;;;;5030706;28;20059;-45
2022/12/03 01:32:43;;;;;;;21.73;9.68;;;6.10;99.90;;;;;;5030447;28;20048;-50
2022/12/03 01:35:09;;;;;;;23.30;9.93;;;6.20;99.90;;;;;;5030953;28;20022;-46
2022/12/03 01:37:34;;;;;;;26.42;10.18;;;8.50;99.90;;;;;;5030487;28;20432;-50
2022/12/03 01:40:00;;;;;;;19.48;9.85;;;6.30;99.90;;;;;;5030675;28;20381;-47
2022/12/03 01:42:32;;;;;;;28.00;10.10;;;6.70;99.90;;;;;;5030569;28;20123;-41
2022/12/03 01:44:59;;;;;;;23.90;10.27;;;6.50;99.90;;;;;;5030426;28;20049;-45
2022/12/03 01:47:31;;;;;;;26.25;11.60;;;6.80;99.90;;;;;;5030467;28;20091;-43
2022/12/03 01:50:10;;;;;;;21.75;10.70;;;6.40;99.90;;;;;;5030575;28;20033;-43
2022/12/03 01:52:38;;;;;;;27.60;11.35;;;6.70;99.90;;;;;;5030772;28;20048;-52
2022/12/03 01:55:10;;;;;;;24.52;11.05;;;6.20;99.90;;;;;;5030037;28;20139;-42
2022/12/03 01:57:46;;;;;;;22.90;9.77;;;7.10;99.90;;;;;;5030306;28;20049;-44
2022/12/03 02:00:22;;;;;;;27.85;11.75;;;6.60;99.90;;;;;;5030521;28;20035;-42
2022/12/03 02:02:51;;;;;;;21.90;10.25;;;6.20;99.90;;;;;;5034481;28;20120;-45
2022/12/03 02:05:23;;;;;;;22.88;11.60;;;6.70;99.90;;;;;;5034529;28;20026;-42
2022/12/03 02:07:49;;;;;;;24.20;10.25;;;6.20;99.90;;;;;;5034204;28;20071;-47
2022/12/03 02:10:17;;;;;;;24.30;11.38;;;6.30;99.90;;;;;;5034112;28;20557;-48
2022/12/03 02:12:51;;;;;;;21.58;10.52;;;6.70;99.90;;;;;;5034030;28;20029;-40
2022/12/03 02:15:17;;;;;;;25.42;11.55;;;6.70;99.90;;;;;;5034179;28;20030;-40
2022/12/03 02:17:43;;;;;;;23.83;10.57;;;6.90;99.90;;;;;;5035035;28;20056;-40
2022/12/03 02:20:10;;;;;;;25.05;11.23;;;6.60;99.90;;;;;;5034000;28;20030;-40
2022/12/03 02:22:54;;;;;;;23.08;10.93;;;6.60;99.90;;;;;;5040977;28;20075;-39
2022/12/03 02:25:28;;;;;;;21.60;9.98;;;5.80;99.90;;;;;;5023753;28;20026;-39
2022/12/03 02:27:54;;;;;;;23.67;10.32;;;6.30;99.90;;;;;;5033369;28;20476;-39
2022/12/03 02:30:23;;;;;;;22.13;10.68;;;6.30;99.90;;;;;;5033707;28;20484;-51
2022/12/03 02:32:50;;;;;;;26.45;11.00;;;6.80;99.90;;;;;;5033678;28;20029;-42
2022/12/03 02:35:25;;;;;;;24.45;10.30;;;7.60;99.90;;;;;;5033477;28;20030;-43
2022/12/03 02:37:54;;;;;;;20.30;9.52;;;6.20;99.90;;;;;;5033518;28;20148;-47
2022/12/03 02:40:23;;;;;;;27.13;10.68;;;6.20;99.90;;;;;;5033427;28;20017;-42
2022/12/03 02:42:52;;;;;;;22.23;10.52;;;7.30;99.90;;;;;;5033504;28;20037;-49
2022/12/03 02:45:22;;;;;;;21.50;9.80;;;6.70;99.90;;;;;;5033428;28;20026;-44
2022/12/03 02:48:01;;;;;;;21.75;9.43;;;6.50;99.90;;;;;;5033359;28;20053;-49
2022/12/03 02:50:36;;;;;;;23.92;9.93;;;6.30;99.90;;;;;;5033445;28;20542;-44
2022/12/03 02:53:06;;;;;;;23.50;10.13;;;8.30;99.90;;;;;;5033535;28;20021;-41
2022/12/03 02:55:34;;;;;;;26.95;11.32;;;7.50;99.90;;;;;;5032797;28;20073;-44
2022/12/03 02:58:00;;;;;;;23.45;10.73;;;6.30;99.90;;;;;;5032973;28;20404;-48
2022/12/03 03:00:26;;;;;;;25.48;10.45;;;6.30;99.90;;;;;;5033245;28;20018;-52
2022/12/03 03:02:52;;;;;;;22.85;10.07;;;5.80;99.90;;;;;;5033065;28;20040;-40
2022/12/03 03:05:20;;;;;;;25.50;9.90;;;7.10;99.90;;;;;;5033328;28;20079;-40
2022/12/03 03:07:46;;;;;;;22.65;10.07;;;;;;;;;;5033222;28;20100;-42
2022/12/03 03:10:15;;;;;;;20.67;9.32;;;6.00;99.90;;;;;;5033257;28;20036;-44
2022/12/03 03:12:41;;;;;;;21.05;9.77;;;5.80;99.90;;;;;;5031954;28;20125;-57
2022/12/03 03:15:09;;;;;;;19.52;9.73;;;6.10;99.90;;;;;;5032939;28;20040;-44
2022/12/03 03:17:34;;;;;;;24.85;10.18;;;6.10;99.90;;;;;;5032864;28;20045;-43
2022/12/03 03:20:01;;;;;;;21.25;10.32;;;6.10;99.90;;;;;;5033038;28;20352;-42
2022/12/03 03:22:35;;;;;;;21.98;10.02;;;6.10;99.90;;;;;;5032784;28;20032;-41
2022/12/03 03:25:01;;;;;;;27.10;10.57;;;6.20;99.90;;;;;;5031340;28;20410;-47
2022/12/03 03:27:28;;;;;;;23.35;9.50;;;6.20;99.90;;;;;;5032657;28;20038;-45
2022/12/03 03:29:56;;;;;;;27.45;10.90;;;6.60;99.90;;;;;;5032791;28;20049;-53
2022/12/03 03:32:21;;;;;;;31.17;10.98;;;6.50;99.90;;;;;;5032832;28;20099;-49
2022/12/03 03:34:47;;;;;;;30.48;10.63;;;6.60;99.90;;;;;;5032747;28;20044;-39
2022/12/03 03:37:13;;;;;;;22.02;11.10;;;6.00;99.90;;;;;;5032583;28;20404;-39
2022/12/03 03:39:38;;;;;;;23.73;10.07;;;6.70;99.90;;;;;;5032429;28;20017;-42
2022/12/03 03:42:04;;;;;;;26.40;10.32;;;5.90;99.90;;;;;;5032498;28;20095;-40
2022/12/03 03:44:31;;;;;;;19.95;9.75;;;5.90;99.90;;;;;;5032511;28;20064;-39
2022/12/03 03:46:57;;;;;;;28.42;10.05;;;6.10;99.90;;;;;;5031355;28;20057;-39
2022/12/03 03:49:23;;;;;;;18.23;9.23;;;7.20;99.90;;;;;;5032507;28;20057;-39
2022/12/03 03:51:48;;;;;;;21.65;10.27;;;6.00;99.90;;;;;;5032183;28;20443;-39
2022/12/03 03:54:14;;;;;;;24.38;9.80;;;7.40;99.90;;;;;;5032170;28;20056;-43
2022/12/03 03:56:40;;;;;;;23.33;10.38;;;6.40;99.90;;;;;;5032022;28;20132;-39
2022/12/03 03:59:06;;;;;;;24.52;9.85;;;6.50;99.90;;;;;;5030902;28;20476;-39
2022/12/03 04:01:32;;;;;;;19.33;9.48;;;6.10;99.90;;;;;;5032300;28;20025;-44
2022/12/03 04:04:00;;;;;;;21.90;9.82;;;5.90;99.90;;;;;;5032115;28;20065;-51
2022/12/03 04:06:26;;;;;;;22.58;9.20;;;6.00;99.90;;;;;;5031936;28;20711;-42
2022/12/03 04:08:52;;;;;;;24.45;10.63;;;6.00;99.90;;;;;;5031910;28;20035;-40
2022/12/03 04:14:02;;;;;;;23.60;10.73;;;5.90;99.90;;;;;;5031922;28;20083;-39
2022/12/03 04:16:28;;;;;;;28.48;11.18;;;4.90;99.90;;;;;;5032113;28;20080;-39
2022/12/03 04:18:53;;;;;;;24.45;10.82;;;5.80;99.90;;;;;;5031982;28;20423;-39
2022/12/03 04:24:07;;;;;;;22.13;9.63;;;5.80;99.90;;;;;;5031814;28;20108;-52
2022/12/03 04:29:19;;;;;;;23.40;10.20;;;5.70;99.90;;;;;;5031453;28;20692;-43
2022/12/03 04:37:13;;;;;;;28.27;12.05;;;5.70;99.90;;;;;;5031404;28;20044;-50
2022/12/03 04:39:39;;;;;;;30.45;12.15;;;5.70;99.90;;;;;;5043707;28;20021;-45
2022/12/03 04:42:06;;;;;;;28.98;11.18;;;5.70;99.90;;;;;;5051071;28;20343;-43
2022/12/03 04:44:32;;;;;;;32.10;11.82;;;5.70;99.90;;;;;;5051321;28;20023;-52
2022/12/03 04:46:58;;;;;;;26.65;12.43;;;4.30;99.90;;;;;;5043168;28;20026;-41
2022/12/03 04:49:24;;;;;;;26.90;11.93;;;5.70;99.90;;;;;;5045507;28;20025;-46
2022/12/03 04:51:50;;;;;;;26.85;11.43;;;5.70;99.90;;;;;;5040237;28;20453;-44
2022/12/03 04:54:15;;;;;;;31.17;12.40;;;7.50;99.90;;;;;;5030839;28;20465;-39
2022/12/03 04:56:41;;;;;;;31.45;12.85;;;5.70;99.90;;;;;;5031024;28;20045;-39
2022/12/03 04:59:06;;;;;;;30.55;13.00;;;5.80;99.90;;;;;;5031034;28;20121;-40
2022/12/03 05:01:32;;;;;;;33.45;13.80;;;5.60;99.90;;;;;;5031301;28;20163;-44
2022/12/03 05:03:58;;;;;;;32.72;13.30;;;;;;;;;;5030953;28;20542;-41
2022/12/03 05:06:23;;;;;;;32.92;13.07;;;6.40;99.90;;;;;;5030939;28;20060;-46
2022/12/03 05:08:49;;;;;;;30.55;12.77;;;;;;;;;;5031105;28;20491;-41
2022/12/03 05:11:15;;;;;;;27.98;12.73;;;7.40;99.90;;;;;;5030767;28;20022;-44
2022/12/03 05:13:41;;;;;;;32.67;13.82;;;6.40;99.90;;;;;;5034257;28;20013;-58
2022/12/03 05:16:06;;;;;;;36.88;12.93;;;5.70;99.90;;;;;;5050678;28;20025;-46
2022/12/03 05:18:32;;;;;;;32.47;12.80;;;5.70;99.90;;;;;;5050866;28;20029;-48
2022/12/03 05:20:58;;;;;;;30.13;13.20;;;5.70;99.90;;;;;;5049500;28;20495;-43
2022/12/03 05:23:24;;;;;;;33.97;12.65;;;5.60;99.90;;;;;;5050687;28;20440;-46
2022/12/03 05:25:49;;;;;;;29.77;12.88;;;5.10;99.90;;;;;;5039782;28;20528;-42
2022/12/03 05:28:15;;;;;;;32.22;12.55;;;3.40;99.90;;;;;;5042142;28;20112;-47
2022/12/03 05:30:41;;;;;;;29.90;11.68;;;;;;;;;;5050752;28;20025;-42
2022/12/03 05:33:07;;;;;;;28.00;12.07;;;5.70;99.90;;;;;;5050656;28;20487;-46
2022/12/03 05:35:33;;;;;;;30.33;13.30;;;5.70;99.90;;;;;;5050963;28;20033;-39
2022/12/03 05:37:59;;;;;;;27.95;11.98;;;5.70;99.90;;;;;;5054825;28;20033;-45
2022/12/03 05:40:24;;;;;;;32.88;13.45;;;5.70;99.90;;;;;;5054805;28;20047;-47
2022/12/03 05:42:53;;;;;;;28.40;12.98;;;5.60;99.90;;;;;;5054530;28;20037;-52
2022/12/03 05:45:34;;;;;;;26.38;11.65;;;5.70;99.90;;;;;;5054933;28;20104;-57
2022/12/03 05:48:00;;;;;;;29.45;12.43;;;6.00;99.90;;;;;;5040703;28;20019;-48
2022/12/03 05:50:29;;;;;;;29.88;12.20;;;5.60;99.90;;;;;;5054608;28;20025;-43
2022/12/03 05:52:55;;;;;;;28.73;13.60;;;5.80;99.90;;;;;;5054445;28;20459;-42
2022/12/03 05:55:21;;;;;;;33.92;13.25;;;5.60;99.90;;;;;;5054337;28;20053;-44
2022/12/03 05:57:46;;;;;;;30.30;11.55;;;5.70;99.90;;;;;;5041883;28;20048;-39
2022/12/03 06:00:16;;;;;;;34.13;13.50;;;5.60;99.90;;;;;;5036082;28;20025;-41
2022/12/03 06:02:43;;;;;;;28.83;11.52;;;5.60;99.90;;;;;;5046571;28;20033;-39
2022/12/03 06:05:10;;;;;;;32.10;11.98;;;5.50;99.90;;;;;;5037880;28;20112;-40
2022/12/03 06:07:36;;;;;;;32.25;12.82;;;4.20;99.90;;;;;;5047987;28;20029;-43
2022/12/03 06:10:03;;;;;;;33.60;12.57;;;5.60;99.90;;;;;;5047870;28;20108;-39
2022/12/03 06:12:29;;;;;;;32.33;13.15;;;5.70;99.90;;;;;;5034441;28;20071;-39
2022/12/03 06:14:54;;;;;;;35.17;12.40;;;5.60;99.90;;;;;;5041062;28;20505;-39
2022/12/03 06:17:20;;;;;;;32.08;12.40;;;5.40;99.90;;;;;;5039087;28;20128;-58
2022/12/03 06:19:46;;;;;;;32.08;11.45;;;5.80;99.90;;;;;;5049975;28;20082;-43
2022/12/03 06:22:12;;;;;;;32.35;11.75;;;;;;;;;;5046197;28;20036;-40
2022/12/03 06:24:38;;;;;;;29.60;13.77;;;5.70;99.90;;;;;;5040854;28;20025;-40
2022/12/03 06:27:04;;;;;;;33.05;13.88;;;5.60;99.90;;;;;;5033588;28;20036;-44
2022/12/03 06:29:29;;;;;;;30.02;12.32;;;5.30;99.90;;;;;;5033786;28;20049;-40
2022/12/03 06:31:56;;;;;;;29.73;12.00;;;5.90;99.90;;;;;;5033188;28;20024;-51
2022/12/03 06:34:22;;;;;;;31.85;11.85;;;;;;;;;;5033632;28;20096;-42
2022/12/03 06:36:49;;;;;;;32.00;12.95;;;5.60;99.90;;;;;;5033448;28;20029;-49
2022/12/03 06:39:15;;;;;;;34.55;12.90;;;6.30;99.90;;;;;;5032817;28;20022;-52
2022/12/03 06:41:40;;;;;;;27.52;12.38;;;5.70;99.90;;;;;;5031850;28;20056;-42
2022/12/03 06:44:06;;;;;;;31.30;11.93;;;5.70;99.90;;;;;;5031365;28;20205;-43
2022/12/03 06:46:32;;;;;;;35.60;13.27;;;6.10;99.90;;;;;;5031426;28;20025;-47
2022/12/03 06:48:58;;;;;;;30.35;12.43;;;5.50;99.90;;;;;;5044582;28;20487;-41
2022/12/03 06:51:24;;;;;;;33.67;13.93;;;;;;;;;;5051718;28;20033;-46
2022/12/03 06:53:50;;;;;;;36.67;12.63;;;6.00;99.90;;;;;;5051979;28;20025;-48
2022/12/03 06:56:15;;;;;;;33.15;13.30;;;6.80;99.90;;;;;;5050892;28;20041;-43
2022/12/03 06:58:41;;;;;;;34.42;12.77;;;6.10;99.90;;;;;;5053426;28;20472;-46
2022/12/03 07:01:06;;;;;;;28.90;11.90;;;5.60;99.90;;;;;;5053168;28;20037;-41
2022/12/03 07:03:32;;;;;;;27.05;11.50;;;;;;;;;;5053110;28;20017;-39
2022/12/03 07:05:58;;;;;;;29.42;11.75;;;;;;;;;;5053087;28;20033;-43
2022/12/03 07:08:24;;;;;;;26.40;12.57;;;6.00;99.90;;;;;;5052921;28;20404;-39
2022/12/03 07:10:50;;;;;;;32.10;12.40;;;5.50;99.90;;;;;;5053304;28;20094;-42
2022/12/03 07:13:15;;;;;;;33.83;12.25;;;5.50;99.90;;;;;;5051576;28;20492;-39
2022/12/03 07:15:41;;;;;;;28.73;11.85;;;6.10;99.90;;;;;;5053110;28;20032;-40
2022/12/03 07:18:07;;;;;;;31.17;11.77;;;5.70;99.90;;;;;;5052801;28;20517;-50
2022/12/03 07:20:32;;;;;;;31.20;12.15;;;5.70;99.90;;;;;;5052763;28;20013;-40
2022/12/03 07:22:58;;;;;;;28.55;10.68;;;5.70;99.90;;;;;;5052878;28;20039;-47
2022/12/03 07:25:23;;;;;;;23.50;10.68;;;5.70;99.90;;;;;;5052812;28;20013;-44
2022/12/03 07:27:49;;;;;;;31.10;11.45;;;5.80;99.90;;;;;;5044679;28;20017;-41
2022/12/03 07:30:15;;;;;;;27.23;11.38;;;5.70;99.90;;;;;;5052594;28;20040;-46
2022/12/03 07:32:40;;;;;;;25.65;10.02;;;6.00;99.90;;;;;;5052824;28;20053;-50
2022/12/03 07:35:06;;;;;;;29.77;12.25;;;5.80;99.90;;;;;;5052464;28;20086;-45
2022/12/03 07:37:33;;;;;;;26.52;11.82;;;5.80;99.90;;;;;;5052413;28;20521;-51
2022/12/03 07:39:59;;;;;;;28.08;11.30;;;5.70;99.90;;;;;;5047651;28;20057;-41
2022/12/03 07:42:24;;;;;;;25.67;10.55;;;5.70;99.90;;;;;;5032584;28;20159;-40
2022/12/03 07:44:50;;;;;;;31.40;11.52;;;5.60;99.90;;;;;;5032408;28;20075;-45
2022/12/03 07:47:16;;;;;;;31.88;11.60;;;5.80;99.90;;;;;;5032939;28;20026;-46
2022/12/03 07:49:42;;;;;;;25.08;10.68;;;6.20;99.90;;;;;;5051217;28;20061;-42
2022/12/03 07:52:07;;;;;;;27.63;11.38;;;5.70;99.90;;;;;;5052534;28;20506;-40
2022/12/03 07:54:33;;;;;;;28.70;11.20;;;;;;;;;;5051972;28;20078;-39
2022/12/03 07:56:59;;;;;;;28.67;10.80;;;7.10;99.90;;;;;;5048121;28;20057;-44
2022/12/03 07:59:25;;;;;;;27.52;10.63;;;5.70;99.90;;;;;;5051492;28;20112;-49
2022/12/03 08:01:51;;;;;;;27.15;11.70;;;6.20;99.90;;;;;;5046508;28;20064;-39
2022/12/03 08:04:17;;;;;;;26.60;11.02;;;5.70;99.90;;;;;;5045108;28;20029;-48
2022/12/03 08:06:44;;;;;;;24.88;9.93;;;;;;;;;;5052136;28;20017;-48
2022/12/03 08:09:09;;;;;;;25.25;10.15;;;5.80;99.90;;;;;;5051972;28;20032;-51
2022/12/03 08:11:35;;;;;;;20.40;9.30;;;5.80;99.90;;;;;;5036525;28;20025;-48
2022/12/03 08:14:06;;;;;;;23.88;9.85;;;6.10;99.90;;;;;;5051220;28;20533;-50
2022/12/03 08:16:36;;;;;;;30.60;11.40;;;5.80;99.90;;;;;;5035522;28;20056;-43
2022/12/03 08:19:08;;;;;;;26.58;11.57;;;5.50;99.90;;;;;;5026419;28;20029;-46
2022/12/03 08:21:35;;;;;;;28.73;10.60;;;5.70;99.90;;;;;;5028592;28;20036;-47
2022/12/03 08:24:20;;;;;;;23.23;10.07;;;6.20;99.90;;;;;;5031691;28;20476;-51
2022/12/03 08:26:47;;;;;;;26.35;10.15;;;5.80;99.90;;;;;;5030927;28;20072;-47
2022/12/03 08:29:16;;;;;;;23.33;9.88;;;6.70;99.90;;;;;;5031565;28;20026;-40
2022/12/03 08:31:47;;;;;;;19.77;8.63;;;5.90;99.90;;;;;;5031744;28;20060;-45
2022/12/03 08:34:19;;;;;;;26.10;9.68;;;6.70;99.90;;;;;;5031808;28;20263;-46
2022/12/03 08:36:46;;;;;;;23.70;9.68;;;6.70;99.90;;;;;;5031359;28;20137;-45
2022/12/03 08:39:37;;;;;;;20.33;8.85;;;5.90;99.90;;;;;;5031491;28;20056;-48
2022/12/03 08:45:23;;;;;;;21.33;8.48;;;5.70;99.90;;;;;;5037778;28;20052;-40
2022/12/03 08:47:48;;;;;;;22.65;9.38;;;6.40;99.90;;;;;;5034709;28;20025;-52
2022/12/03 08:50:23;;;;;;;20.30;8.90;;;6.00;99.90;;;;;;5051078;28;20087;-46
2022/12/03 08:52:49;;;;;;;19.73;8.75;;;7.40;99.90;;;;;;5050623;28;20068;-50
2022/12/03 08:55:35;;;;;;;20.45;9.13;;;6.80;99.90;;;;;;5042130;28;20072;-42
2022/12/03 08:58:19;;;;;;;15.90;8.30;;;6.10;99.90;;;;;;5026687;28;20042;-44
2022/12/03 09:00:45;;;;;;;20.65;9.13;;;7.80;99.90;;;;;;5063782;28;20043;-40
2022/12/03 09:03:17;;;;;;;20.88;8.65;;;4.40;99.90;;;;;;5025099;28;20450;-40
2022/12/03 09:05:42;;;;;;;19.67;8.60;;;6.40;99.90;;;;;;5030244;28;20144;-44
2022/12/03 09:08:08;;;;;;;21.88;8.18;;;4.90;99.90;;;;;;5036456;28;20129;-47
2022/12/03 09:10:34;;;;;;;18.42;8.48;;;6.10;99.90;;;;;;5027870;28;20048;-44
2022/12/03 09:12:59;;;;;;;14.38;7.72;;;6.50;99.90;;;;;;5029891;28;20033;-42
2022/12/03 09:15:25;;;;;;;17.25;8.77;;;6.50;99.90;;;;;;5030529;28;20017;-40
2022/12/03 09:17:50;;;;;;;19.35;8.15;;;6.20;99.90;;;;;;5030537;28;20492;-46
2022/12/03 09:20:16;;;;;;;17.30;8.15;;;6.30;99.90;;;;;;5036859;28;20064;-40
2022/12/03 09:22:42;;;;;;;18.00;7.80;;;6.20;99.90;;;;;;5030554;28;20033;-40
2022/12/03 09:25:07;;;;;;;21.98;8.55;;;7.00;99.90;;;;;;5030705;28;20060;-39
2022/12/03 09:27:33;;;;;;;17.42;7.55;;;6.30;99.90;;;;;;5029945;28;20033;-43
2022/12/03 09:29:59;;;;;;;21.35;8.95;;;6.30;99.90;;;;;;5030569;28;20045;-42
2022/12/03 09:32:24;;;;;;;18.60;7.43;;;6.30;99.90;;;;;;5030657;28;20021;-40
2022/12/03 09:34:50;;;;;;;18.23;8.27;;;6.30;99.90;;;;;;5030420;28;20025;-43
2022/12/03 09:37:16;;;;;;;16.98;8.88;;;6.00;99.90;;;;;;5030172;28;20066;-39
2022/12/03 09:39:41;;;;;;;19.67;8.15;;;6.50;99.90;;;;;;5030540;28;20021;-39
2022/12/03 09:42:07;;;;;;;20.52;8.30;;;6.40;99.90;;;;;;5030313;28;20503;-39
2022/12/03 09:44:34;;;;;;;18.30;8.02;;;6.40;99.90;;;;;;5030409;28;20032;-39
2022/12/03 09:47:00;;;;;;;18.73;8.70;;;6.40;99.90;;;;;;5038944;28;20021;-39
2022/12/03 09:49:29;;;;;;;20.73;8.70;;;6.40;99.90;;;;;;5046074;28;20472;-39
2022/12/03 09:51:56;;;;;;;22.80;9.25;;;6.50;99.90;;;;;;5039548;28;20108;-39
2022/12/03 09:54:24;;;;;;;16.17;8.40;;;6.40;99.90;;;;;;5042549;28;20055;-42
2022/12/03 09:56:50;;;;;;;18.17;8.20;;;6.50;99.90;;;;;;5044141;28;20128;-43
2022/12/03 09:59:16;;;;;;;20.85;8.00;;;6.50;99.90;;;;;;5046229;28;20112;-39
2022/12/03 10:01:42;;;;;;;17.23;8.27;;;6.50;99.90;;;;;;5041608;28;20021;-44
2022/12/03 10:04:08;;;;;;;22.00;8.73;;;6.50;99.90;;;;;;5037202;28;20021;-41
2022/12/03 10:06:34;;;;;;;22.10;9.55;;;7.10;99.90;;;;;;5034460;28;20038;-48
2022/12/03 10:09:00;;;;;;;18.10;8.90;;;6.50;99.90;;;;;;5028494;28;20029;-43
2022/12/03 10:11:27;;;;;;;19.55;9.13;;;6.60;99.90;;;;;;5029818;28;20542;-50
2022/12/03 10:13:55;;;;;;;16.33;9.25;;;6.50;99.90;;;;;;5050246;28;20572;-45
2022/12/03 10:16:20;;;;;;;18.73;8.77;;;6.60;99.90;;;;;;5027745;28;20087;-47
2022/12/03 10:18:53;;;;;;;16.20;8.07;;;6.60;99.90;;;;;;5030355;28;20033;-47
2022/12/03 10:21:29;;;;;;;13.70;7.40;;;6.60;99.90;;;;;;5029711;28;20453;-49
2022/12/03 10:24:18;;;;;;;18.55;8.85;;;6.60;99.90;;;;;;5028148;28;20045;-49
2022/12/03 10:26:45;;;;;;;18.63;9.05;;;5.40;99.90;;;;;;5032083;28;20025;-50
2022/12/03 10:29:12;;;;;;;18.48;8.50;;;6.60;99.90;;;;;;5033413;28;20029;-56
2022/12/03 10:31:38;;;;;;;17.48;8.85;;;6.60;99.90;;;;;;5032500;28;20032;-46
2022/12/03 10:34:04;;;;;;;22.35;10.00;;;6.60;99.90;;;;;;5039682;28;20021;-44
2022/12/03 10:36:29;;;;;;;19.77;8.60;;;6.60;99.90;;;;;;5040759;28;20437;-50
2022/12/03 10:39:06;;;;;;;20.70;9.43;;;6.60;99.90;;;;;;5033482;28;20071;-39
2022/12/03 10:41:31;;;;;;;21.55;9.63;;;6.60;99.90;;;;;;5033481;28;20083;-42
2022/12/03 10:44:17;;;;;;;17.20;8.68;;;6.40;99.90;;;;;;5033225;28;20735;-43
2022/12/03 10:46:44;;;;;;;19.20;9.32;;;6.60;99.90;;;;;;5033451;28;20528;-39
2022/12/03 10:49:18;;;;;;;17.48;9.93;;;6.60;99.90;;;;;;5048360;28;20104;-52
2022/12/03 10:51:46;;;;;;;20.58;9.65;;;6.50;99.90;;;;;;5053812;28;20025;-44
2022/12/03 10:54:21;;;;;;;23.88;9.57;;;6.60;99.90;;;;;;5053247;28;20028;-39
2022/12/03 10:56:48;;;;;;;20.15;9.45;;;6.50;99.90;;;;;;5027828;28;20472;-45
2022/12/03 10:59:17;;;;;;;17.52;8.50;;;6.50;99.90;;;;;;5053104;28;20028;-39
2022/12/03 11:01:43;;;;;;;21.88;9.65;;;6.60;99.90;;;;;;5040608;28;20025;-42
2022/12/03 11:04:29;;;;;;;25.00;9.60;;;6.60;99.90;;;;;;5035409;28;20034;-43
2022/12/03 11:06:55;;;;;;;19.67;10.25;;;7.50;99.90;;;;;;5026566;28;20083;-42
2022/12/03 11:09:42;;;;;;;22.98;10.10;;;6.80;99.90;;;;;;5034643;28;20025;-42
2022/12/03 11:12:18;;;;;;;23.00;9.70;;;7.00;99.90;;;;;;5033058;28;20484;-40
2022/12/03 11:14:50;;;;;;;20.98;10.25;;;5.30;99.90;;;;;;5031405;28;20021;-40
2022/12/03 11:17:37;;;;;;;24.05;11.00;;;6.60;99.90;;;;;;5032843;28;20032;-40
2022/12/03 11:20:08;;;;;;;20.17;9.65;;;6.50;99.90;;;;;;5029728;28;20108;-43
2022/12/03 11:22:45;;;;;;;21.45;10.48;;;6.80;99.90;;;;;;5033033;28;20036;-45
2022/12/03 11:25:23;;;;;;;22.48;10.38;;;6.60;99.90;;;;;;5032764;28;20024;-41
2022/12/03 11:28:11;;;;;;;20.63;10.07;;;6.60;99.90;;;;;;5032560;28;20041;-41
2022/12/03 11:30:49;;;;;;;24.08;10.00;;;6.60;99.90;;;;;;5032442;28;20025;-45
2022/12/03 11:33:43;;;;;;;21.73;10.15;;;7.80;99.90;;;;;;5031669;28;20391;-44
2022/12/03 11:36:11;;;;;;;17.38;8.88;;;6.60;99.90;;;;;;5032359;28;20038;-45
2022/12/03 11:38:37;;;;;;;21.50;10.30;;;6.70;99.90;;;;;;5042833;28;20025;-44
2022/12/03 11:41:08;;;;;;;20.60;10.52;;;6.90;99.90;;;;;;5043165;28;20036;-46
2022/12/03 11:44:28;;;;;;;24.48;11.43;;;6.70;99.90;;;;;;5031937;28;20037;-40
2022/12/03 11:46:56;;;;;;;20.08;10.88;;;6.50;99.90;;;;;;5028931;28;20033;-40
2022/12/03 11:49:36;;;;;;;26.13;11.77;;;6.70;99.90;;;;;;5048144;28;20044;-43
2022/12/03 11:52:18;;;;;;;23.85;12.48;;;6.60;99.90;;;;;;5040609;28;20067;-40
2022/12/03 11:55:17;;;;;;;27.38;13.02;;;6.70;99.90;;;;;;5032113;28;20446;-44
2022/12/03 11:57:44;;;;;;;21.27;10.77;;;6.50;99.90;;;;;;5031905;28;20041;-43
2022/12/03 12:00:20;;;;;;;23.40;11.80;;;6.60;99.90;;;;;;5032220;28;20033;-40
2022/12/03 12:02:46;;;;;;;23.77;12.45;;;8.00;99.90;;;;;;5032317;28;20052;-45
2022/12/03 12:05:34;;;;;;;25.02;11.85;;;7.30;99.90;;;;;;5032271;28;20017;-49
2022/12/03 12:08:01;;;;;;;25.83;12.05;;;7.90;99.90;;;;;;5031778;28;20030;-40
2022/12/03 12:10:41;;;;;;;24.33;11.93;;;6.60;99.90;;;;;;5032136;28;20029;-43
2022/12/03 12:13:25;;;;;;;25.60;12.02;;;6.60;99.90;;;;;;5031951;28;20079;-43
2022/12/03 12:15:51;;;;;;;33.13;15.55;;;6.80;99.90;;;;;;5031866;28;20053;-51
2022/12/03 12:18:56;;;;;;;49.85;21.25;;;5.00;99.90;;;;;;5031416;28;20034;-45
2022/12/03 12:21:40;;;;;;;28.17;13.40;;;6.60;99.90;;;;;;5012002;28;20025;-51
2022/12/03 12:24:45;;;;;;;26.30;12.75;;;6.50;99.90;;;;;;5031583;28;20044;-46
2022/12/03 12:27:20;;;;;;;32.25;15.30;;;7.00;99.90;;;;;;5031397;28;20021;-40
2022/12/03 12:29:54;;;;;;;31.10;14.00;;;5.60;99.90;;;;;;5031742;28;20025;-42
2022/12/03 12:32:27;;;;;;;40.00;17.90;;;6.50;99.90;;;;;;5031760;28;20532;-43
2022/12/03 12:34:58;;;;;;;28.17;13.18;;;6.50;99.90;;;;;;5031312;28;20442;-42
2022/12/03 12:37:56;;;;;;;36.58;16.25;;;7.40;99.90;;;;;;5031336;28;20481;-46
2022/12/03 12:40:27;;;;;;;30.27;13.68;;;6.50;99.90;;;;;;5031416;28;20116;-44
2022/12/03 12:42:56;;;;;;;30.33;13.32;;;7.30;99.90;;;;;;5031554;28;20029;-45
2022/12/03 12:45:25;;;;;;;35.30;15.35;;;7.80;99.90;;;;;;5031158;28;20026;-43
2022/12/03 12:48:14;;;;;;;32.50;14.68;;;6.50;99.90;;;;;;5034839;28;20103;-47
2022/12/03 12:50:45;;;;;;;28.85;13.90;;;6.20;99.90;;;;;;5046974;28;20079;-43
2022/12/03 12:53:29;;;;;;;29.45;14.10;;;6.40;99.90;;;;;;5039161;28;20021;-42
2022/12/03 12:56:18;;;;;;;32.63;15.32;;;6.60;99.90;;;;;;5030652;28;20500;-45
2022/12/03 12:58:44;;;;;;;34.10;17.00;;;6.40;99.90;;;;;;5040067;28;20450;-44
2022/12/03 13:01:19;;;;;;;34.58;14.52;;;5.50;99.90;;;;;;5050891;28;20021;-47
2022/12/03 13:03:49;;;;;;;33.47;14.45;;;7.60;99.90;;;;;;5049791;28;20494;-39
2022/12/03 13:06:15;;;;;;;30.38;15.25;;;6.40;99.90;;;;;;5034930;28;20083;-45
2022/12/03 13:08:47;;;;;;;29.98;14.73;;;7.00;99.90;;;;;;5031087;28;20083;-45
2022/12/03 13:11:33;;;;;;;31.20;15.30;;;6.10;99.90;;;;;;5044027;28;20055;-43
2022/12/03 13:14:04;;;;;;;29.25;14.52;;;6.70;99.90;;;;;;5047093;28;20090;-45